createdAt,value
2018-05-10T00:07:58.568Z,7.2
2018-05-10T00:18:44.361Z,10.3
2018-05-10T00:29:30.382Z,14.2
2018-05-10T00:39:42.423Z,10.7
2018-05-10T00:49:57.937Z,15.9
2018-05-10T01:00:11.814Z,14.5
2018-05-10T01:10:32.523Z,16.6
2018-05-10T01:20:46.302Z,19.3
2018-05-10T01:30:57.616Z,21.4
2018-05-10T01:41:12.123Z,17.2
2018-05-10T01:52:03.794Z,27.6
2018-05-10T02:02:20.427Z,20.7
2018-05-10T02:25:16.022Z,30.8
2018-05-10T02:36:02.553Z,29.9
2018-05-10T02:46:48.757Z,33.0
2018-05-10T02:57:44.521Z,33.8
2018-05-10T03:07:56.627Z,35.1
2018-05-10T03:18:42.717Z,30.6
2018-05-10T03:28:57.166Z,28.0
2018-05-10T03:39:14.266Z,32.2
2018-05-10T03:49:26.089Z,22.6
2018-05-10T03:59:40.530Z,24.5
2018-05-10T04:10:25.526Z,26.6
2018-05-10T04:20:37.736Z,17.3
2018-05-10T04:30:53.260Z,26.0
2018-05-10T04:41:08.769Z,16.1
2018-05-10T04:51:20.531Z,17.6
2018-05-10T05:01:35.076Z,12.3
2018-05-10T05:11:49.440Z,8.9
2018-05-10T05:22:35.157Z,14.6
2018-05-10T05:33:20.808Z,12.4
2018-05-10T05:44:07.281Z,9.1
2018-05-10T05:54:53.465Z,8.3
2018-05-10T06:05:05.864Z,8.5
2018-05-10T06:15:19.740Z,7.0
2018-05-10T06:25:33.811Z,5.6
2018-05-10T06:35:45.458Z,8.2
2018-05-10T06:46:00.250Z,7.1
2018-05-10T06:56:15.728Z,6.6
2018-05-10T07:06:29.829Z,5.6
2018-05-10T07:16:44.976Z,8.1
2018-05-10T07:26:59.438Z,7.9
2018-05-10T07:37:34.631Z,8.1
2018-05-10T07:47:50.743Z,11.4
2018-05-10T07:58:05.067Z,7.3
2018-05-10T08:08:19.177Z,6.0
2018-05-10T08:18:33.572Z,3.9
2018-05-10T08:28:47.961Z,4.9
2018-05-10T08:39:02.442Z,4.6
2018-05-10T08:49:16.509Z,3.9
2018-05-10T08:59:49.501Z,3.9
2018-05-10T09:10:01.026Z,3.6
2018-05-10T09:20:15.707Z,2.3
2018-05-10T09:30:28.687Z,2.7
2018-05-10T09:40:43.101Z,3.8
2018-05-10T09:51:16.051Z,2.8
2018-05-10T10:01:31.600Z,3.4
2018-05-10T10:11:45.600Z,3.5
2018-05-10T10:22:00.448Z,3.4
2018-05-10T10:32:17.121Z,4.2
2018-05-10T10:42:31.604Z,5.5
2018-05-10T10:53:16.933Z,6.1
2018-05-10T11:04:02.783Z,6.0
2018-05-10T11:14:17.440Z,5.4
2018-05-10T11:24:31.131Z,4.9
2018-05-10T11:34:42.968Z,3.7
2018-05-10T11:44:56.902Z,4.1
2018-05-10T11:55:08.513Z,3.8
2018-05-10T12:05:22.789Z,3.2
2018-05-10T12:15:38.272Z,3.0
2018-05-10T12:26:24.506Z,2.8
2018-05-10T12:36:38.639Z,2.3
2018-05-10T12:47:10.170Z,2.3
2018-05-10T12:58:04.215Z,2.2
2018-05-10T13:08:50.270Z,1.5
2018-05-10T14:00:05.178Z,4.9
2018-05-10T14:10:16.381Z,7.7
2018-05-10T14:20:30.852Z,4.1
2018-05-10T14:30:45.178Z,5.3
2018-05-10T14:41:09.822Z,5.2
2018-05-10T14:51:23.780Z,3.7
2018-05-10T15:02:09.139Z,5.1
2018-05-10T15:12:23.167Z,3.8
2018-05-10T15:23:08.226Z,4.2
2018-05-10T15:33:54.809Z,5.2
2018-05-10T15:44:43.519Z,3.4
2018-05-10T15:54:58.017Z,3.3
2018-05-10T16:05:43.824Z,5.3
2018-05-10T16:17:02.266Z,3.6
2018-05-10T16:27:16.888Z,3.0
2018-05-10T16:37:52.007Z,4.8
2018-05-10T16:50:07.951Z,6.8
2018-05-10T17:16:15.427Z,5.1
2018-05-10T17:27:02.292Z,8.7
2018-05-10T17:38:13.743Z,9.8
2018-05-10T17:48:30.668Z,7.4
2018-05-10T17:58:46.819Z,4.6
2018-05-10T18:09:34.740Z,3.3
2018-05-10T18:19:49.367Z,2.3
2018-05-10T18:30:04.959Z,2.4
2018-05-10T18:40:50.837Z,1.4
2018-05-10T18:51:04.388Z,1.8
2018-05-10T19:01:18.862Z,3.9
2018-05-10T19:11:33.874Z,1.2
2018-05-10T19:21:48.555Z,1.3
2018-05-10T19:32:35.092Z,1.4
2018-05-10T19:42:53.048Z,2.3
2018-05-10T19:53:42.636Z,1.7
2018-05-10T20:04:30.414Z,2.0
2018-05-10T20:15:17.297Z,1.8
2018-05-10T20:32:40.392Z,2.3
